createdAt,value
2022-11-21T00:04:53.238Z,7.65
2022-11-21T00:11:38.914Z,7.65
2022-11-21T00:18:26.959Z,12.38
2022-11-21T00:25:13.731Z,8.05
2022-11-21T00:31:59.254Z,9.07
2022-11-21T00:38:47.260Z,11.18
2022-11-21T00:45:32.668Z,7.80
2022-11-21T00:52:19.806Z,10.88
2022-11-21T00:59:07.831Z,8.57
2022-11-21T01:05:53.199Z,9.07
2022-11-21T01:12:38.568Z,13.82
2022-11-21T01:19:26.913Z,12.57
2022-11-21T01:26:16.218Z,11.10
2022-11-21T01:33:01.923Z,9.52
2022-11-21T01:39:50.356Z,12.80
2022-11-21T01:46:35.761Z,9.85
2022-11-21T01:53:21.638Z,8.05
2022-11-21T02:00:14.969Z,12.67
2022-11-21T02:07:02.873Z,13.45
2022-11-21T02:13:48.379Z,12.13
2022-11-21T02:20:36.379Z,8.65
2022-11-21T02:27:24.938Z,13.50
2022-11-21T02:34:10.795Z,12.07
2022-11-21T02:41:03.698Z,10.25
2022-11-21T02:48:02.241Z,10.23
2022-11-21T02:54:49.429Z,8.65
2022-11-21T03:01:34.834Z,8.15
2022-11-21T03:08:22.815Z,7.88
2022-11-21T03:15:11.025Z,10.68
2022-11-21T03:21:56.497Z,11.20
2022-11-21T03:28:45.441Z,10.35
2022-11-21T03:35:30.905Z,11.35
2022-11-21T03:42:16.630Z,11.07
2022-11-21T04:02:53.341Z,6.85
2022-11-21T04:09:38.771Z,8.15
2022-11-21T04:16:24.258Z,6.82
2022-11-21T04:23:12.500Z,7.10
2022-11-21T04:29:57.902Z,10.90
2022-11-21T04:36:43.580Z,8.27
2022-11-21T04:43:31.945Z,10.45
2022-11-21T04:50:20.292Z,7.80
2022-11-21T04:57:06.004Z,7.93
2022-11-21T05:03:56.015Z,9.45
2022-11-21T05:10:53.729Z,6.60
2022-11-21T05:17:39.321Z,9.18
2022-11-21T05:24:27.562Z,7.03
2022-11-21T05:31:13.150Z,6.75
2022-11-21T05:38:02.157Z,8.82
2022-11-21T05:44:50.348Z,6.65
2022-11-21T05:51:36.025Z,8.40
2022-11-21T05:58:21.682Z,6.60
2022-11-21T06:05:11.122Z,7.05
2022-11-21T06:11:56.592Z,6.90
2022-11-21T06:18:44.423Z,6.95
2022-11-21T06:25:32.394Z,6.75
2022-11-21T06:32:17.994Z,6.68
2022-11-21T06:39:03.545Z,6.60
2022-11-21T06:45:51.700Z,8.57
2022-11-21T06:52:37.951Z,6.50
2022-11-21T06:59:23.318Z,5.90
2022-11-21T07:06:11.314Z,7.03
2022-11-21T07:13:13.304Z,6.03
2022-11-21T07:19:58.676Z,6.47
2022-11-21T07:26:46.695Z,6.43
2022-11-21T07:33:32.183Z,6.20
2022-11-21T07:40:17.910Z,6.15
2022-11-21T07:47:05.985Z,6.40
2022-11-21T07:53:51.559Z,8.18
2022-11-21T08:00:40.729Z,6.70
2022-11-21T08:07:28.902Z,6.57
2022-11-21T08:14:14.392Z,8.20
2022-11-21T08:20:59.748Z,12.05
2022-11-21T08:27:47.995Z,8.95
2022-11-21T08:34:35.005Z,9.55
2022-11-21T08:48:20.631Z,7.32
2022-11-21T08:55:06.837Z,8.02
2022-11-21T09:01:53.018Z,9.87
2022-11-21T09:08:41.083Z,8.43
2022-11-21T09:15:39.138Z,6.85
2022-11-21T09:22:24.843Z,7.20
2022-11-21T09:29:15.328Z,7.43
2022-11-21T09:36:03.362Z,7.28
2022-11-21T09:43:16.531Z,7.38
2022-11-21T09:50:06.893Z,6.45
2022-11-21T09:56:52.675Z,6.20
2022-11-21T10:03:47.434Z,5.70
2022-11-21T10:10:53.051Z,6.07
2022-11-21T10:17:55.983Z,9.15
2022-11-21T10:24:52.814Z,6.82
2022-11-21T10:38:31.706Z,6.20
2022-11-21T10:45:20.924Z,5.82
2022-11-21T10:52:16.924Z,6.00
2022-11-21T10:59:02.656Z,5.72
2022-11-21T11:06:00.595Z,8.52
2022-11-21T11:13:17.961Z,5.50
2022-11-21T11:20:40.508Z,6.88
2022-11-21T11:27:31.454Z,6.20
2022-11-21T11:34:20.192Z,7.05
2022-11-21T11:41:20.772Z,6.18
2022-11-21T11:48:12.738Z,7.82
2022-11-21T11:55:08.069Z,10.70
2022-11-21T12:02:01.162Z,9.02
2022-11-21T12:08:55.147Z,6.88
2022-11-21T12:15:52.833Z,9.50
2022-11-21T12:22:38.326Z,8.68
2022-11-21T12:29:51.753Z,10.20
2022-11-21T12:36:48.995Z,8.43
2022-11-21T12:43:47.106Z,7.28
2022-11-21T12:50:55.107Z,9.45
2022-11-21T12:58:03.739Z,6.20
2022-11-21T13:04:53.464Z,6.07
2022-11-21T13:12:02.237Z,6.50
2022-11-21T13:18:53.117Z,6.40
2022-11-21T13:25:48.981Z,7.53
2022-11-21T13:32:42.077Z,6.68
2022-11-21T13:39:36.333Z,7.07
2022-11-21T13:47:01.111Z,5.68
2022-11-21T13:54:29.034Z,9.95
2022-11-21T14:08:24.348Z,7.30
2022-11-21T14:15:27.903Z,9.75
2022-11-21T14:22:34.744Z,8.15
2022-11-21T14:29:22.712Z,6.78
2022-11-21T14:36:11.960Z,9.30
2022-11-21T14:43:02.568Z,8.90
2022-11-21T14:49:55.778Z,8.57
2022-11-21T14:56:41.183Z,8.23
2022-11-21T15:03:29.258Z,7.38
2022-11-21T15:10:32.582Z,10.07
2022-11-21T15:17:23.161Z,18.33
2022-11-21T15:24:37.598Z,21.67
2022-11-21T15:31:24.817Z,10.43
2022-11-21T15:38:27.325Z,10.80
2022-11-21T15:45:29.502Z,9.35
2022-11-21T15:52:16.268Z,6.90
2022-11-21T15:59:02.132Z,11.38
2022-11-21T16:05:50.080Z,11.07
2022-11-21T16:12:35.456Z,6.88
2022-11-21T16:19:20.860Z,9.25
2022-11-21T16:26:09.435Z,19.60
2022-11-21T16:32:55.592Z,13.15
2022-11-21T16:39:41.287Z,12.20
2022-11-21T16:46:29.263Z,11.00
2022-11-21T16:53:14.865Z,23.42
2022-11-21T17:00:00.773Z,28.02
2022-11-21T17:06:51.352Z,24.02
2022-11-21T17:13:37.005Z,28.85
2022-11-21T17:20:22.439Z,22.38
2022-11-21T17:27:10.451Z,19.88
2022-11-21T17:33:58.149Z,15.30
2022-11-21T17:40:44.001Z,12.63
2022-11-21T17:47:32.032Z,12.83
2022-11-21T17:54:17.528Z,10.10
2022-11-21T18:01:05.847Z,12.77
2022-11-21T18:07:53.959Z,17.40
2022-11-21T18:14:39.757Z,15.18
2022-11-21T18:21:28.411Z,8.68
2022-11-21T18:28:16.815Z,8.02
2022-11-21T18:35:02.899Z,10.80
2022-11-21T18:41:56.387Z,26.92
2022-11-21T18:49:01.399Z,9.27
2022-11-21T18:55:48.393Z,21.67
2022-11-21T19:02:36.387Z,10.85
2022-11-21T19:09:21.870Z,8.55
2022-11-21T19:16:09.425Z,13.10
2022-11-21T19:22:57.813Z,11.40
2022-11-21T19:29:43.255Z,20.60
2022-11-21T19:36:28.797Z,9.38
2022-11-21T19:43:16.810Z,17.60
2022-11-21T19:50:02.287Z,13.75
2022-11-21T19:56:47.822Z,10.60
2022-11-21T20:03:36.174Z,11.88
2022-11-21T20:10:21.907Z,15.20
2022-11-21T20:17:07.490Z,14.75
2022-11-21T20:23:56.006Z,11.93
2022-11-21T20:30:41.518Z,19.60
2022-11-21T20:37:26.989Z,21.63
2022-11-21T20:58:32.826Z,7.07
2022-11-21T21:05:20.892Z,6.95
2022-11-21T21:12:06.745Z,7.45
2022-11-21T21:18:54.131Z,7.50
2022-11-21T21:25:42.875Z,6.90
2022-11-21T21:32:28.262Z,7.75
2022-11-21T21:39:13.829Z,6.00
2022-11-21T21:46:06.774Z,8.65
2022-11-21T21:52:52.200Z,9.48
2022-11-21T21:59:37.715Z,6.93
2022-11-21T22:06:26.339Z,5.93
2022-11-21T22:13:11.714Z,6.65
2022-11-21T22:19:57.225Z,8.13
2022-11-21T22:26:45.812Z,5.88
2022-11-21T22:33:31.343Z,7.53
2022-11-21T22:40:17.420Z,7.97
2022-11-21T22:47:05.371Z,10.90
2022-11-21T22:53:51.493Z,7.78
2022-11-21T23:00:37.112Z,8.93
2022-11-21T23:07:25.255Z,6.40
2022-11-21T23:14:10.795Z,8.05
2022-11-21T23:20:56.530Z,7.00
2022-11-21T23:27:44.503Z,8.38
2022-11-21T23:34:30.055Z,7.43
2022-11-21T23:41:15.765Z,6.90
2022-11-21T23:48:03.744Z,7.13
2022-11-21T23:54:49.139Z,10.27
